sensor_id;sensor_type;location;lat;lon;timestamp;temperature;humidity
19174;DHT22;9719;49.322;8.536;2024-02-28T00:01:58;4.70;99.90
19174;DHT22;9719;49.322;8.536;2024-02-28T00:06:59;4.60;99.90
19174;DHT22;9719;49.322;8.536;2024-02-28T00:12:01;4.50;99.90
19174;DHT22;9719;49.322;8.536;2024-02-28T00:17:04;4.70;99.90
19174;DHT22;9719;49.322;8.536;2024-02-28T00:22:06;4.60;99.90
19174;DHT22;9719;49.322;8.536;2024-02-28T00:27:08;4.70;99.90
19174;DHT22;9719;49.322;8.536;2024-02-28T00:32:11;4.60;99.90
19174;DHT22;9719;49.322;8.536;2024-02-28T00:37:12;4.60;99.90
19174;DHT22;9719;49.322;8.536;2024-02-28T00:42:14;4.60;99.90
19174;DHT22;9719;49.322;8.536;2024-02-28T00:47:17;4.70;99.90
19174;DHT22;9719;49.322;8.536;2024-02-28T00:52:19;4.70;99.90
19174;DHT22;9719;49.322;8.536;2024-02-28T00:57:20;4.50;99.90
19174;DHT22;9719;49.322;8.536;2024-02-28T01:02:24;4.50;99.90
19174;DHT22;9719;49.322;8.536;2024-02-28T01:07:25;4.50;99.90
19174;DHT22;9719;49.322;8.536;2024-02-28T01:12:27;4.60;99.90
19174;DHT22;9719;49.322;8.536;2024-02-28T01:17:30;4.40;99.90
19174;DHT22;9719;49.322;8.536;2024-02-28T01:22:32;4.40;99.90
19174;DHT22;9719;49.322;8.536;2024-02-28T01:27:33;4.40;99.90
19174;DHT22;9719;49.322;8.536;2024-02-28T01:32:36;4.30;99.90
19174;DHT22;9719;49.322;8.536;2024-02-28T01:37:38;4.20;99.90
19174;DHT22;9719;49.322;8.536;2024-02-28T01:42:40;4.20;99.90
19174;DHT22;9719;49.322;8.536;2024-02-28T01:47:43;4.30;99.90
19174;DHT22;9719;49.322;8.536;2024-02-28T01:52:45;4.20;99.90
19174;DHT22;9719;49.322;8.536;2024-02-28T01:57:47;4.10;99.90
19174;DHT22;9719;49.322;8.536;2024-02-28T02:02:50;3.90;99.90
19174;DHT22;9719;49.322;8.536;2024-02-28T02:07:53;3.90;99.90
19174;DHT22;9719;49.322;8.536;2024-02-28T02:12:55;3.70;99.90
19174;DHT22;9719;49.322;8.536;2024-02-28T02:18:06;3.50;99.90
19174;DHT22;9719;49.322;8.536;2024-02-28T02:23:10;3.80;99.90
19174;DHT22;9719;49.322;8.536;2024-02-28T02:28:12;3.90;99.90
19174;DHT22;9719;49.322;8.536;2024-02-28T02:33:13;3.90;99.90
19174;DHT22;9719;49.322;8.536;2024-02-28T02:38:16;3.90;99.90
19174;DHT22;9719;49.322;8.536;2024-02-28T02:43:18;3.90;99.90
19174;DHT22;9719;49.322;8.536;2024-02-28T02:48:20;3.80;99.90
19174;DHT22;9719;49.322;8.536;2024-02-28T02:53:23;3.90;99.90
19174;DHT22;9719;49.322;8.536;2024-02-28T02:58:24;3.90;99.90
19174;DHT22;9719;49.322;8.536;2024-02-28T03:03:26;4.00;99.90
19174;DHT22;9719;49.322;8.536;2024-02-28T03:08:29;3.90;99.90
19174;DHT22;9719;49.322;8.536;2024-02-28T03:13:31;3.70;99.90
19174;DHT22;9719;49.322;8.536;2024-02-28T03:18:32;3.80;99.90
19174;DHT22;9719;49.322;8.536;2024-02-28T03:23:35;3.70;99.90
19174;DHT22;9719;49.322;8.536;2024-02-28T03:28:37;3.50;99.90
19174;DHT22;9719;49.322;8.536;2024-02-28T03:33:39;3.40;99.90
19174;DHT22;9719;49.322;8.536;2024-02-28T03:38:42;3.20;99.90
19174;DHT22;9719;49.322;8.536;2024-02-28T03:43:43;3.30;99.90
19174;DHT22;9719;49.322;8.536;2024-02-28T03:48:45;3.20;99.90
19174;DHT22;9719;49.322;8.536;2024-02-28T03:53:48;3.20;99.90
19174;DHT22;9719;49.322;8.536;2024-02-28T03:58:50;3.20;99.90
19174;DHT22;9719;49.322;8.536;2024-02-28T04:03:51;3.30;99.90
19174;DHT22;9719;49.322;8.536;2024-02-28T04:08:54;3.20;99.90
19174;DHT22;9719;49.322;8.536;2024-02-28T04:13:56;3.10;99.90
19174;DHT22;9719;49.322;8.536;2024-02-28T04:18:58;3.10;99.90
19174;DHT22;9719;49.322;8.536;2024-02-28T04:24:01;2.90;99.90
19174;DHT22;9719;49.322;8.536;2024-02-28T04:29:02;2.70;99.90
19174;DHT22;9719;49.322;8.536;2024-02-28T04:34:05;2.60;99.90
19174;DHT22;9719;49.322;8.536;2024-02-28T04:39:08;2.50;99.90
19174;DHT22;9719;49.322;8.536;2024-02-28T04:44:10;2.50;99.90
19174;DHT22;9719;49.322;8.536;2024-02-28T04:49:11;2.60;99.90
19174;DHT22;9719;49.322;8.536;2024-02-28T04:54:14;2.50;99.90
19174;DHT22;9719;49.322;8.536;2024-02-28T04:59:16;2.40;99.90
19174;DHT22;9719;49.322;8.536;2024-02-28T05:04:18;2.40;99.90
19174;DHT22;9719;49.322;8.536;2024-02-28T05:09:21;2.10;99.90
19174;DHT22;9719;49.322;8.536;2024-02-28T05:14:23;2.10;99.90
19174;DHT22;9719;49.322;8.536;2024-02-28T05:19:24;1.90;99.90
19174;DHT22;9719;49.322;8.536;2024-02-28T05:24:27;1.90;99.90
19174;DHT22;9719;49.322;8.536;2024-02-28T05:29:29;1.70;99.90
19174;DHT22;9719;49.322;8.536;2024-02-28T05:34:31;1.60;99.90
19174;DHT22;9719;49.322;8.536;2024-02-28T05:39:34;1.80;99.90
19174;DHT22;9719;49.322;8.536;2024-02-28T05:44:36;2.00;99.90
19174;DHT22;9719;49.322;8.536;2024-02-28T05:49:38;2.10;99.90
19174;DHT22;9719;49.322;8.536;2024-02-28T05:54:41;2.10;99.90
19174;DHT22;9719;49.322;8.536;2024-02-28T05:59:43;2.10;99.90
19174;DHT22;9719;49.322;8.536;2024-02-28T06:04:44;2.10;99.90
19174;DHT22;9719;49.322;8.536;2024-02-28T06:09:48;2.00;99.90
19174;DHT22;9719;49.322;8.536;2024-02-28T06:14:49;2.10;99.90
19174;DHT22;9719;49.322;8.536;2024-02-28T06:19:51;1.90;99.90
19174;DHT22;9719;49.322;8.536;2024-02-28T06:24:54;1.70;99.90
19174;DHT22;9719;49.322;8.536;2024-02-28T06:29:55;1.80;99.90
19174;DHT22;9719;49.322;8.536;2024-02-28T06:34:57;1.80;99.90
19174;DHT22;9719;49.322;8.536;2024-02-28T06:40:00;1.90;99.90
19174;DHT22;9719;49.322;8.536;2024-02-28T06:45:02;1.80;99.90
19174;DHT22;9719;49.322;8.536;2024-02-28T06:50:05;1.80;99.90
19174;DHT22;9719;49.322;8.536;2024-02-28T06:55:09;1.90;99.90
19174;DHT22;9719;49.322;8.536;2024-02-28T07:00:11;2.00;99.90
19174;DHT22;9719;49.322;8.536;2024-02-28T07:05:15;2.10;99.90
19174;DHT22;9719;49.322;8.536;2024-02-28T07:10:18;2.30;99.90
19174;DHT22;9719;49.322;8.536;2024-02-28T07:15:20;2.30;99.90
19174;DHT22;9719;49.322;8.536;2024-02-28T07:20:22;2.40;99.90
19174;DHT22;9719;49.322;8.536;2024-02-28T07:25:26;2.70;99.90
19174;DHT22;9719;49.322;8.536;2024-02-28T07:30:28;3.00;99.90
19174;DHT22;9719;49.322;8.536;2024-02-28T07:35:30;3.00;99.90
19174;DHT22;9719;49.322;8.536;2024-02-28T07:40:33;3.30;99.90
19174;DHT22;9719;49.322;8.536;2024-02-28T07:45:34;3.50;99.90
19174;DHT22;9719;49.322;8.536;2024-02-28T07:50:36;3.50;99.90
19174;DHT22;9719;49.322;8.536;2024-02-28T07:55:40;4.00;99.90
19174;DHT22;9719;49.322;8.536;2024-02-28T08:00:41;4.40;99.90
19174;DHT22;9719;49.322;8.536;2024-02-28T08:05:43;4.20;99.90
19174;DHT22;9719;49.322;8.536;2024-02-28T08:10:46;4.70;99.90
19174;DHT22;9719;49.322;8.536;2024-02-28T08:15:49;4.80;99.90
19174;DHT22;9719;49.322;8.536;2024-02-28T08:20:51;4.90;99.90
19174;DHT22;9719;49.322;8.536;2024-02-28T08:25:55;4.80;99.90
19174;DHT22;9719;49.322;8.536;2024-02-28T08:30:56;5.00;99.90
19174;DHT22;9719;49.322;8.536;2024-02-28T08:35:58;5.40;99.90
19174;DHT22;9719;49.322;8.536;2024-02-28T08:41:01;5.40;99.90
19174;DHT22;9719;49.322;8.536;2024-02-28T08:46:03;5.50;99.90
19174;DHT22;9719;49.322;8.536;2024-02-28T08:51:05;5.60;99.90
19174;DHT22;9719;49.322;8.536;2024-02-28T08:56:08;5.60;99.90
19174;DHT22;9719;49.322;8.536;2024-02-28T09:01:13;5.60;99.90
19174;DHT22;9719;49.322;8.536;2024-02-28T09:06:15;5.80;99.90
19174;DHT22;9719;49.322;8.536;2024-02-28T09:11:18;5.80;99.90
19174;DHT22;9719;49.322;8.536;2024-02-28T09:16:19;6.00;99.90
19174;DHT22;9719;49.322;8.536;2024-02-28T09:21:21;6.80;99.90
19174;DHT22;9719;49.322;8.536;2024-02-28T09:26:24;6.90;99.90
19174;DHT22;9719;49.322;8.536;2024-02-28T09:31:26;6.50;99.90
19174;DHT22;9719;49.322;8.536;2024-02-28T09:36:27;6.00;99.90
19174;DHT22;9719;49.322;8.536;2024-02-28T09:41:30;6.40;99.90
19174;DHT22;9719;49.322;8.536;2024-02-28T09:46:33;7.00;99.90
19174;DHT22;9719;49.322;8.536;2024-02-28T09:51:35;7.40;99.90
19174;DHT22;9719;49.322;8.536;2024-02-28T09:56:38;7.00;99.90
19174;DHT22;9719;49.322;8.536;2024-02-28T10:01:43;7.20;99.90
19174;DHT22;9719;49.322;8.536;2024-02-28T10:06:46;7.60;99.90
19174;DHT22;9719;49.322;8.536;2024-02-28T10:11:50;7.30;99.90
19174;DHT22;9719;49.322;8.536;2024-02-28T10:16:52;6.90;99.90
19174;DHT22;9719;49.322;8.536;2024-02-28T10:21:55;7.10;99.90
19174;DHT22;9719;49.322;8.536;2024-02-28T10:27:00;7.70;99.90
19174;DHT22;9719;49.322;8.536;2024-02-28T10:32:03;7.80;99.90
19174;DHT22;9719;49.322;8.536;2024-02-28T10:37:06;8.10;99.90
19174;DHT22;9719;49.322;8.536;2024-02-28T10:42:11;9.30;99.90
19174;DHT22;9719;49.322;8.536;2024-02-28T10:47:14;8.80;99.90
19174;DHT22;9719;49.322;8.536;2024-02-28T10:52:19;8.80;99.90
19174;DHT22;9719;49.322;8.536;2024-02-28T10:57:24;8.90;99.90
19174;DHT22;9719;49.322;8.536;2024-02-28T11:02:27;9.00;99.90
19174;DHT22;9719;49.322;8.536;2024-02-28T11:07:30;8.90;99.90
19174;DHT22;9719;49.322;8.536;2024-02-28T11:12:33;7.80;99.90
19174;DHT22;9719;49.322;8.536;2024-02-28T11:17:37;8.00;99.90
19174;DHT22;9719;49.322;8.536;2024-02-28T11:22:40;8.50;99.90
19174;DHT22;9719;49.322;8.536;2024-02-28T18:28:49;6.90;99.90
19174;DHT22;9719;49.322;8.536;2024-02-28T18:33:51;6.90;99.90
19174;DHT22;9719;49.322;8.536;2024-02-28T18:38:53;6.60;99.90
19174;DHT22;9719;49.322;8.536;2024-02-28T18:43:56;6.40;99.90
19174;DHT22;9719;49.322;8.536;2024-02-28T18:48:58;6.30;99.90
19174;DHT22;9719;49.322;8.536;2024-02-28T18:54:00;6.20;99.90
19174;DHT22;9719;49.322;8.536;2024-02-28T18:59:04;6.10;99.90
19174;DHT22;9719;49.322;8.536;2024-02-28T19:04:06;6.30;99.90
19174;DHT22;9719;49.322;8.536;2024-02-28T19:09:07;6.30;99.90
19174;DHT22;9719;49.322;8.536;2024-02-28T19:14:11;6.30;99.90
19174;DHT22;9719;49.322;8.536;2024-02-28T19:19:13;6.30;99.90
19174;DHT22;9719;49.322;8.536;2024-02-28T19:24:15;6.20;99.90
19174;DHT22;9719;49.322;8.536;2024-02-28T19:29:18;6.20;99.90
19174;DHT22;9719;49.322;8.536;2024-02-28T19:34:19;6.10;99.90
19174;DHT22;9719;49.322;8.536;2024-02-28T19:39:21;6.00;99.90
19174;DHT22;9719;49.322;8.536;2024-02-28T19:44:24;6.00;99.90
19174;DHT22;9719;49.322;8.536;2024-02-28T19:49:26;5.80;99.90
19174;DHT22;9719;49.322;8.536;2024-02-28T19:54:28;5.70;99.90
19174;DHT22;9719;49.322;8.536;2024-02-28T19:59:31;5.70;99.90
19174;DHT22;9719;49.322;8.536;2024-02-28T20:04:32;5.50;99.90
19174;DHT22;9719;49.322;8.536;2024-02-28T20:09:34;5.50;99.90
19174;DHT22;9719;49.322;8.536;2024-02-28T20:14:38;5.50;99.90
19174;DHT22;9719;49.322;8.536;2024-02-28T20:19:41;5.40;99.90
19174;DHT22;9719;49.322;8.536;2024-02-28T20:24:44;5.50;99.90
19174;DHT22;9719;49.322;8.536;2024-02-28T20:29:47;5.20;99.90
19174;DHT22;9719;49.322;8.536;2024-02-28T20:34:49;5.10;99.90
19174;DHT22;9719;49.322;8.536;2024-02-28T20:39:50;5.00;99.90
19174;DHT22;9719;49.322;8.536;2024-02-28T20:44:53;4.90;99.90
19174;DHT22;9719;49.322;8.536;2024-02-28T20:49:55;4.60;99.90
19174;DHT22;9719;49.322;8.536;2024-02-28T20:54:57;4.50;99.90
19174;DHT22;9719;49.322;8.536;2024-02-28T21:00:01;4.30;99.90
19174;DHT22;9719;49.322;8.536;2024-02-28T21:05:04;4.30;99.90
19174;DHT22;9719;49.322;8.536;2024-02-28T21:10:08;4.10;99.90
19174;DHT22;9719;49.322;8.536;2024-02-28T21:15:11;3.80;99.90
19174;DHT22;9719;49.322;8.536;2024-02-28T21:20:12;3.70;99.90
19174;DHT22;9719;49.322;8.536;2024-02-28T21:25:14;3.40;99.90
19174;DHT22;9719;49.322;8.536;2024-02-28T21:30:18;3.30;99.90
19174;DHT22;9719;49.322;8.536;2024-02-28T21:35:20;3.20;99.90
19174;DHT22;9719;49.322;8.536;2024-02-28T21:40:21;3.30;99.90
19174;DHT22;9719;49.322;8.536;2024-02-28T21:45:29;3.30;99.90
19174;DHT22;9719;49.322;8.536;2024-02-28T21:50:31;3.30;99.90
19174;DHT22;9719;49.322;8.536;2024-02-28T21:55:34;3.20;99.90
19174;DHT22;9719;49.322;8.536;2024-02-28T22:00:37;3.00;99.90
19174;DHT22;9719;49.322;8.536;2024-02-28T22:05:39;3.00;99.90
19174;DHT22;9719;49.322;8.536;2024-02-28T22:10:42;2.80;99.90
19174;DHT22;9719;49.322;8.536;2024-02-28T22:15:45;2.80;99.90
19174;DHT22;9719;49.322;8.536;2024-02-28T22:20:47;2.70;99.90
19174;DHT22;9719;49.322;8.536;2024-02-28T22:25:48;2.70;99.90
19174;DHT22;9719;49.322;8.536;2024-02-28T22:30:51;2.70;99.90
19174;DHT22;9719;49.322;8.536;2024-02-28T22:35:53;2.70;99.90
19174;DHT22;9719;49.322;8.536;2024-02-28T22:40:54;2.80;99.90
19174;DHT22;9719;49.322;8.536;2024-02-28T22:45:57;2.90;99.90
19174;DHT22;9719;49.322;8.536;2024-02-28T22:50:59;3.20;99.90
19174;DHT22;9719;49.322;8.536;2024-02-28T22:56:01;3.20;99.90
19174;DHT22;9719;49.322;8.536;2024-02-28T23:01:04;3.10;99.90
19174;DHT22;9719;49.322;8.536;2024-02-28T23:06:06;2.90;99.90
19174;DHT22;9719;49.322;8.536;2024-02-28T23:11:08;2.90;99.90
19174;DHT22;9719;49.322;8.536;2024-02-28T23:16:11;2.90;99.90
19174;DHT22;9719;49.322;8.536;2024-02-28T23:21:12;3.10;99.90
19174;DHT22;9719;49.322;8.536;2024-02-28T23:26:15;3.30;99.90
19174;DHT22;9719;49.322;8.536;2024-02-28T23:31:18;3.10;99.90
19174;DHT22;9719;49.322;8.536;2024-02-28T23:36:22;3.00;99.90
19174;DHT22;9719;49.322;8.536;2024-02-28T23:41:23;3.00;99.90
19174;DHT22;9719;49.322;8.536;2024-02-28T23:46:26;3.10;99.90
19174;DHT22;9719;49.322;8.536;2024-02-28T23:51:28;2.90;99.90
19174;DHT22;9719;49.322;8.536;2024-02-28T23:56:30;2.60;99.90
